Accueil
METAR-TAF:

METAR-TAF

Aéroports :

Le Caire, Égypte

Aéroport international du Caire

latitude: 30-08N, longitude: 031-24E, altitude: 64 m

Observation

Le bulletin a été fait il y a 18 minutes, à 04:30 UTC
Vent 3 kt de nord-est
Température 20°C
Humidité 78%
Pression 1015 hPa
Visibilité: 2000 m
brume

METAR: HECA 220430Z 04003KT 2000 BR NSC 20/16 Q1015 TEMPO 4000

Heure: 06:48 (04:48 UTC)

Prévision

Le bulletin a été fait il y a 5 heures et 48 minutes, à 23:00 UTC
Prévision valable du 22 à 00 UTC au 23 à 06 UTC
Vent 8 kt de nord
Visibilité 10 km ou plus
Nuages épars à une hauteur de 2500 ft
Probabilité 40% :
Temporairement
du 22 à 00 UTC au 22 à 06 UTC
Visibilité: 4000 m
brume
Probabilité 40% :
Temporairement
du 23 à 00 UTC au 23 à 06 UTC
Visibilité: 4000 m
brume

TAF: HECA 212300Z 2200/2306 01008KT 9999 SCT025 PROB40 TEMPO 2200/2206 VRB03K 4000 BR NSC PROB40 TEMPO 2300/2306 VRB03K 4000 BR NSC

Observations et prévisions météorologiques de plus de 4000 aéroports (messages METAR et TAF).

Les stations disponibles sont représentées par des disques jaunes et rouges sur la carte.

Passer la souris dessus pour voir le nom de la station.

Cliquer dessus pour voir les observations et prévisions météorologiques.

Pour changer de carte: cliquez sur les boutons verts avec une croix noire pour zoomer, sur le bouton vert avec un tiret pour effectuer un zoom arrière, ou sur les flèches vertes pour les cartes adjacentes.


METAR-TAF: